Portada
METAR-TAF:

METAR-TAF

Aeroports :

Palembang, Indonèsia

latitud: 02-54S, longitud: 104-42E, altitud: 10 m

Observació

L'informe es va fer fa 20 minuts, a les 02:30 UTC
Vent 4 kt del Sud/Sud-Est
Temperatura 28°C
Humitat 89%
Pressió 1012 hPa
Visibilitat: 8000 m
Núvols disperses a una alçada de 1000 ft

METAR: WIPP 200230Z 16004KT 8000 SCT010 28/26 Q1012 NOSIG

Hora: 09:50 (02:50 UTC)

Pronòstic

L'informe es va fer fa 3 hores i 50 minuts, a les 23:00 UTC
Pronòstic vàlid del 20 a les 00 UTC al 20 a les 24 UTC
Vent 8 kt del Sud/Sud-Est
Visibilitat 10 km o més
Núvols disperses a una alçada de 1000 ft
Temporalment
l' 20 a les 07 UTC al 20 a les 11 UTC
Visibilitat: 4000 m
Escasses núvols a una alçada de 1000 ft, Cumulonimbus.
Cel ennuvolat a una alçada de 1000 ft
pluja
Temporalment
l' 20 a les 21 UTC al 20 a les 24 UTC
Visibilitat: 5000 m
boirina

TAF: WIPP 192300Z 2000/2024 15008KT 9999 SCT010 TEMPO 2007/2011 4000 -RA FEW010CB BKN010 TEMPO 2021/2024 5000 BR

Observacions i pronòstics meteorològics de més de 4000 aeroports (METAR i TAF).

Les estacions disponibles són els punts grocs i vermells al mapa.

Posi el ratolí al punt desitjat per veure el nom de l'estació.

Feu clic per veure les observacions i els pronòstics meteorològics.

Per canviar el mapa: feu clic els botons verds amb una creu de color negre per apropar; al botó verd amb un guió per allunyar la imatge; o en les fletxes verdes per a mapes adjacents.


METAR-TAF: